createdAt,value
2023-04-09T00:00:30.851Z,1.38
2023-04-09T00:02:58.720Z,1.38
2023-04-09T00:05:26.385Z,1.55
2023-04-09T00:07:53.994Z,1.58
2023-04-09T00:10:21.678Z,1.40
2023-04-09T00:12:50.592Z,1.27
2023-04-09T00:15:29.956Z,1.40
2023-04-09T00:17:58.677Z,1.85
2023-04-09T00:20:26.420Z,1.65
2023-04-09T00:22:54.098Z,1.60
2023-04-09T00:25:21.740Z,1.73
2023-04-09T00:27:51.078Z,1.55
2023-04-09T00:30:18.665Z,1.70
2023-04-09T00:32:46.324Z,1.92
2023-04-09T00:35:14.122Z,1.63
2023-04-09T00:37:41.792Z,1.77
2023-04-09T00:40:09.699Z,2.03
2023-04-09T00:42:38.404Z,2.17
2023-04-09T00:45:08.210Z,1.85
2023-04-09T00:47:36.081Z,1.88
2023-04-09T00:50:04.829Z,1.63
2023-04-09T00:52:32.467Z,0.70
2023-04-09T00:55:00.582Z,1.63
2023-04-09T00:57:28.772Z,2.30
2023-04-09T00:59:56.546Z,2.10
2023-04-09T01:02:25.717Z,1.55
2023-04-09T01:04:53.424Z,1.70
2023-04-09T01:07:26.110Z,1.75
2023-04-09T01:09:56.914Z,1.70
2023-04-09T01:12:32.636Z,1.90
2023-04-09T01:15:04.395Z,1.65
2023-04-09T01:17:35.629Z,1.52
2023-04-09T01:20:05.018Z,1.90
2023-04-09T01:22:40.884Z,2.20
2023-04-09T01:25:13.947Z,2.22
2023-04-09T01:27:48.120Z,2.15
2023-04-09T01:30:17.698Z,2.03
2023-04-09T01:32:45.933Z,2.15
2023-04-09T01:35:13.724Z,1.52
2023-04-09T01:37:41.734Z,1.60
2023-04-09T01:40:09.803Z,1.60
2023-04-09T01:42:38.226Z,1.25
2023-04-09T01:45:06.977Z,1.23
2023-04-09T01:47:36.194Z,2.13
2023-04-09T01:50:03.940Z,1.63
2023-04-09T01:52:31.670Z,1.67
2023-04-09T01:54:59.311Z,2.03
2023-04-09T01:57:26.892Z,2.10
2023-04-09T01:59:55.531Z,2.17
2023-04-09T02:02:29.568Z,1.98
2023-04-09T02:04:59.654Z,1.63
2023-04-09T02:07:30.667Z,2.25
2023-04-09T02:09:58.741Z,1.80
2023-04-09T02:12:26.701Z,1.92
2023-04-09T02:14:54.713Z,2.05
2023-04-09T02:17:22.401Z,1.73
2023-04-09T02:19:50.064Z,2.50
2023-04-09T02:22:19.105Z,2.28
2023-04-09T02:24:47.697Z,1.75
2023-04-09T02:27:15.391Z,1.88
2023-04-09T02:29:43.281Z,2.35
2023-04-09T02:32:10.871Z,2.33
2023-04-09T02:34:38.453Z,1.65
2023-04-09T02:37:06.054Z,2.10
2023-04-09T02:39:35.091Z,1.80
2023-04-09T02:42:03.386Z,1.83
2023-04-09T02:44:30.963Z,2.47
2023-04-09T02:46:58.569Z,1.95
2023-04-09T02:49:26.248Z,1.85
2023-04-09T02:51:53.860Z,2.65
2023-04-09T02:54:21.676Z,1.90
2023-04-09T02:56:50.755Z,2.80
2023-04-09T02:59:18.338Z,2.13
2023-04-09T03:01:46.113Z,2.47
2023-04-09T03:04:13.971Z,2.10
2023-04-09T03:06:41.657Z,2.28
2023-04-09T03:09:09.190Z,2.53
2023-04-09T03:11:36.854Z,1.83
2023-04-09T03:14:05.785Z,2.33
2023-04-09T03:16:33.375Z,2.05
2023-04-09T03:19:00.961Z,2.97
2023-04-09T03:21:28.656Z,1.88
2023-04-09T03:23:56.379Z,2.55
2023-04-09T03:26:24.042Z,1.33
2023-04-09T03:28:51.875Z,2.35
2023-04-09T03:31:21.040Z,3.13
2023-04-09T03:33:49.057Z,2.35
2023-04-09T03:36:16.706Z,2.08
2023-04-09T03:39:00.355Z,1.98
2023-04-09T03:41:39.986Z,2.22
2023-04-09T03:44:12.091Z,3.15
2023-04-09T03:46:59.801Z,2.55
2023-04-09T03:49:28.839Z,2.28
2023-04-09T03:52:01.948Z,2.45
2023-04-09T03:54:37.291Z,3.03
2023-04-09T03:57:09.889Z,3.13
2023-04-09T03:59:40.656Z,2.42
2023-04-09T04:02:09.788Z,2.47
2023-04-09T04:04:41.784Z,2.35
2023-04-09T04:07:11.450Z,3.30
2023-04-09T04:09:48.456Z,2.22
2023-04-09T04:12:18.295Z,2.78
2023-04-09T04:14:58.839Z,3.50
2023-04-09T04:17:35.097Z,2.85
2023-04-09T04:20:05.500Z,2.47
2023-04-09T04:22:39.252Z,2.40
2023-04-09T04:25:07.199Z,2.67
2023-04-09T04:27:34.777Z,2.60
2023-04-09T04:30:02.558Z,2.83
2023-04-09T04:32:43.909Z,2.95
2023-04-09T04:35:12.819Z,3.03
2023-04-09T04:37:41.679Z,2.50
2023-04-09T04:40:10.022Z,3.15
2023-04-09T04:42:42.071Z,2.08
2023-04-09T04:45:14.127Z,2.22
2023-04-09T04:47:53.161Z,1.85
2023-04-09T04:50:20.908Z,1.63
2023-04-09T04:52:56.776Z,2.05
2023-04-09T04:55:29.033Z,3.30
2023-04-09T04:57:56.988Z,3.00
2023-04-09T05:00:28.553Z,1.50
2023-04-09T05:03:03.126Z,2.88
2023-04-09T05:05:43.444Z,2.08
2023-04-09T05:08:11.027Z,2.42
2023-04-09T05:10:41.492Z,2.40
2023-04-09T05:13:09.098Z,2.60
2023-04-09T05:15:40.730Z,3.28
2023-04-09T05:18:10.964Z,3.28
2023-04-09T05:20:39.060Z,2.88
2023-04-09T05:23:10.225Z,3.53
2023-04-09T05:25:42.005Z,2.90
2023-04-09T05:28:17.561Z,3.53
2023-04-09T05:30:50.490Z,3.67
2023-04-09T05:33:20.922Z,3.17
2023-04-09T05:35:48.766Z,1.52
2023-04-09T05:38:16.486Z,2.95
2023-04-09T05:40:46.193Z,3.35
2023-04-09T05:43:14.477Z,2.88
2023-04-09T05:45:44.516Z,2.88
2023-04-09T05:48:12.148Z,2.80
2023-04-09T05:50:54.116Z,3.83
2023-04-09T05:53:25.302Z,3.38
2023-04-09T05:55:53.052Z,2.85
2023-04-09T05:58:25.937Z,2.03
2023-04-09T06:00:53.980Z,3.53
2023-04-09T06:03:21.653Z,3.08
2023-04-09T06:05:50.765Z,2.75
2023-04-09T06:08:18.370Z,3.25
2023-04-09T06:10:45.955Z,2.85
2023-04-09T06:13:13.538Z,3.38
2023-04-09T06:15:42.639Z,2.38
2023-04-09T06:18:10.440Z,3.60
2023-04-09T06:20:37.982Z,2.80
2023-04-09T06:23:07.027Z,3.83
2023-04-09T06:25:34.590Z,4.32
2023-04-09T06:28:03.020Z,3.75
2023-04-09T06:30:31.826Z,3.38
2023-04-09T06:32:59.411Z,4.03
2023-04-09T06:35:27.082Z,3.80
2023-04-09T06:37:54.630Z,3.45
2023-04-09T06:40:23.625Z,4.57
2023-04-09T06:42:51.363Z,4.97
2023-04-09T06:45:24.861Z,3.78
2023-04-09T06:47:52.513Z,4.25
2023-04-09T06:50:20.134Z,3.45
2023-04-09T06:52:47.686Z,3.78
2023-04-09T06:55:15.557Z,3.85
2023-04-09T06:57:44.500Z,2.97
2023-04-09T07:00:12.442Z,4.70
2023-04-09T07:02:40.433Z,4.95
2023-04-09T07:05:08.987Z,3.78
2023-04-09T07:07:36.597Z,3.83
2023-04-09T07:10:04.215Z,4.25
2023-04-09T07:12:32.688Z,4.07
2023-04-09T07:15:01.983Z,4.07
2023-04-09T07:17:29.681Z,4.45
2023-04-09T07:19:57.286Z,4.80
2023-04-09T07:22:25.419Z,4.03
2023-04-09T07:24:55.073Z,4.00
2023-04-09T07:27:23.270Z,3.67
2023-04-09T07:29:51.059Z,5.05
2023-04-09T07:32:20.013Z,3.47
2023-04-09T07:34:47.595Z,3.25
2023-04-09T07:37:15.442Z,4.40
2023-04-09T07:39:43.590Z,3.72
2023-04-09T07:42:11.355Z,4.22
2023-04-09T07:44:39.544Z,4.63
2023-04-09T07:47:07.991Z,4.15
2023-04-09T07:49:38.100Z,4.28
2023-04-09T07:52:06.084Z,5.55
2023-04-09T07:54:33.958Z,6.05
2023-04-09T07:57:01.839Z,4.00
2023-04-09T07:59:29.690Z,4.90
2023-04-09T08:01:57.506Z,3.83
2023-04-09T08:04:25.386Z,4.20
2023-04-09T08:06:54.465Z,4.40
2023-04-09T08:09:22.349Z,4.10
2023-04-09T08:11:50.383Z,4.90
2023-04-09T08:14:18.435Z,4.35
2023-04-09T08:16:47.229Z,4.38
2023-04-09T08:19:16.293Z,3.78
2023-04-09T08:21:44.154Z,4.63
2023-04-09T08:24:13.459Z,4.55
2023-04-09T08:26:41.537Z,3.95
2023-04-09T08:29:09.978Z,5.63
2023-04-09T08:31:37.603Z,6.13
2023-04-09T08:34:05.225Z,5.22
2023-04-09T08:36:34.622Z,6.50
2023-04-09T08:39:02.276Z,6.13
2023-04-09T08:41:31.289Z,7.00
2023-04-09T08:43:59.903Z,8.18
2023-04-09T08:46:28.209Z,7.05
2023-04-09T08:48:56.362Z,8.05
2023-04-09T08:51:24.739Z,8.75
2023-04-09T08:53:56.454Z,7.53
2023-04-09T08:56:24.141Z,7.95
2023-04-09T08:58:53.498Z,10.02
2023-04-09T09:01:22.104Z,8.65
2023-04-09T09:03:54.286Z,8.50
2023-04-09T09:06:23.039Z,8.43
2023-04-09T09:09:00.902Z,8.38
2023-04-09T09:11:30.222Z,8.63
2023-04-09T09:14:03.413Z,8.40
2023-04-09T09:16:31.415Z,9.52
2023-04-09T09:18:59.271Z,8.98
2023-04-09T09:21:29.996Z,9.60
2023-04-09T09:23:58.175Z,9.27
2023-04-09T09:26:27.333Z,9.57
2023-04-09T09:28:55.364Z,9.85
2023-04-09T09:31:24.615Z,10.30
2023-04-09T09:33:52.293Z,9.52
2023-04-09T09:36:37.513Z,10.18
2023-04-09T09:39:09.987Z,9.98
2023-04-09T09:41:37.875Z,10.13
2023-04-09T09:44:07.179Z,10.60
2023-04-09T09:46:37.284Z,10.10
2023-04-09T09:49:04.899Z,9.55
2023-04-09T09:51:32.937Z,9.15
2023-04-09T09:54:00.957Z,9.85
2023-04-09T09:56:32.624Z,9.48
2023-04-09T09:59:07.339Z,10.02
2023-04-09T10:01:36.552Z,9.68
2023-04-09T10:04:06.703Z,9.40
2023-04-09T10:06:34.741Z,9.50
2023-04-09T10:09:06.287Z,9.45
2023-04-09T10:11:34.675Z,8.18
2023-04-09T10:14:02.767Z,9.02
2023-04-09T10:16:31.139Z,8.65
2023-04-09T10:19:01.363Z,8.60
2023-04-09T10:21:36.423Z,8.77
2023-04-09T10:24:07.707Z,8.90
2023-04-09T10:26:35.571Z,8.65
2023-04-09T10:29:08.177Z,8.75
2023-04-09T10:31:54.971Z,8.38
2023-04-09T10:34:24.921Z,7.50
2023-04-09T10:36:53.991Z,7.75
2023-04-09T10:39:21.726Z,8.18
2023-04-09T10:41:49.854Z,8.23
2023-04-09T10:44:24.444Z,7.47
2023-04-09T10:46:54.124Z,7.80
2023-04-09T10:49:22.517Z,7.15
2023-04-09T10:51:53.591Z,7.50
2023-04-09T10:54:39.742Z,6.90
2023-04-09T10:57:17.939Z,7.13
2023-04-09T10:59:46.715Z,5.75
2023-04-09T11:02:33.059Z,6.35
2023-04-09T11:05:04.592Z,7.22
2023-04-09T11:07:34.834Z,6.60
2023-04-09T11:10:02.397Z,6.95
2023-04-09T11:12:29.981Z,6.97
2023-04-09T11:14:57.580Z,6.78
2023-04-09T11:17:25.258Z,8.00
2023-04-09T11:19:53.058Z,7.03
2023-04-09T11:22:20.671Z,8.05
2023-04-09T11:24:50.877Z,7.63
2023-04-09T11:27:19.452Z,7.32
2023-04-09T11:29:47.179Z,7.82
2023-04-09T11:32:14.805Z,7.70
2023-04-09T11:34:42.365Z,8.60
2023-04-09T11:37:16.735Z,8.05
2023-04-09T11:39:45.037Z,7.65
2023-04-09T11:42:16.245Z,8.25
2023-04-09T11:44:45.731Z,8.00
2023-04-09T11:47:13.382Z,7.60
2023-04-09T11:49:41.582Z,7.25
2023-04-09T11:52:09.211Z,7.55
2023-04-09T11:54:37.219Z,7.60
2023-04-09T11:57:04.941Z,8.35
2023-04-09T11:59:33.988Z,7.47
2023-04-09T12:02:01.681Z,6.28
2023-04-09T12:04:29.382Z,6.93
2023-04-09T12:06:58.756Z,6.65
2023-04-09T12:09:26.386Z,5.65
2023-04-09T12:11:53.995Z,5.88
2023-04-09T12:14:22.628Z,5.38
2023-04-09T12:16:53.453Z,5.00
2023-04-09T12:19:22.758Z,4.82
2023-04-09T12:21:51.005Z,5.07
2023-04-09T12:24:19.650Z,4.05
2023-04-09T12:26:47.494Z,4.05
2023-04-09T12:29:15.790Z,3.95
2023-04-09T12:31:43.776Z,3.78
2023-04-09T12:34:13.322Z,3.25
2023-04-09T12:36:41.518Z,3.72
2023-04-09T12:39:09.704Z,3.67
2023-04-09T12:41:37.282Z,3.85
2023-04-09T12:44:05.072Z,3.08
2023-04-09T12:46:32.859Z,2.65
2023-04-09T12:49:00.869Z,2.90
2023-04-09T12:51:30.494Z,2.58
2023-04-09T12:53:58.183Z,2.78
2023-04-09T12:56:25.797Z,2.17
2023-04-09T12:58:54.058Z,3.40
2023-04-09T13:01:21.992Z,3.78
2023-04-09T13:03:49.777Z,3.63
2023-04-09T13:06:17.363Z,4.90
2023-04-09T13:08:46.583Z,5.15
2023-04-09T13:11:14.192Z,5.25
2023-04-09T13:13:42.703Z,5.45
2023-04-09T13:16:10.509Z,4.88
2023-04-09T13:18:38.095Z,4.55
2023-04-09T13:21:05.812Z,4.97
2023-04-09T13:23:33.414Z,4.65
2023-04-09T13:26:02.393Z,3.80
2023-04-09T13:28:29.968Z,3.33
2023-04-09T13:30:57.643Z,3.35
2023-04-09T13:33:25.234Z,3.25
2023-04-09T13:35:52.871Z,3.08
2023-04-09T13:38:20.572Z,2.92
2023-04-09T13:40:48.164Z,2.97
2023-04-09T13:43:17.107Z,3.10
2023-04-09T13:45:44.699Z,2.75
2023-04-09T13:48:15.430Z,3.22
2023-04-09T13:50:43.228Z,3.00
2023-04-09T13:53:10.953Z,2.08
2023-04-09T13:55:38.599Z,1.95
2023-04-09T13:58:06.362Z,3.08
2023-04-09T14:00:36.012Z,2.58
2023-04-09T14:03:04.032Z,1.73
2023-04-09T14:05:32.337Z,1.77
2023-04-09T14:07:59.918Z,1.33
2023-04-09T14:10:27.595Z,2.15
2023-04-09T14:12:55.304Z,1.63
2023-04-09T14:15:22.978Z,1.75
2023-04-09T14:17:51.926Z,2.25
2023-04-09T14:20:21.098Z,2.20
2023-04-09T14:22:49.461Z,1.98
2023-04-09T14:25:17.488Z,1.65
2023-04-09T14:27:46.348Z,2.03
2023-04-09T14:30:14.236Z,1.90
2023-04-09T14:32:43.147Z,1.52
2023-04-09T14:35:12.165Z,1.52
2023-04-09T14:37:40.983Z,1.83
2023-04-09T14:40:09.341Z,1.55
2023-04-09T14:42:36.911Z,1.75
2023-04-09T14:45:04.681Z,1.73
2023-04-09T14:47:32.348Z,1.52
2023-04-09T14:50:00.016Z,2.15
2023-04-09T14:52:30.420Z,1.35
2023-04-09T14:54:58.066Z,2.03
2023-04-09T14:57:25.777Z,1.88
2023-04-09T14:59:53.379Z,2.22
2023-04-09T15:02:21.039Z,1.42
2023-04-09T15:04:48.797Z,1.95
2023-04-09T15:07:16.422Z,0.60
2023-04-09T15:09:45.322Z,2.00
2023-04-09T15:12:12.901Z,1.20
2023-04-09T15:14:40.612Z,1.88
2023-04-09T15:17:08.158Z,1.33
2023-04-09T15:19:35.862Z,2.90
2023-04-09T15:22:03.416Z,2.00
2023-04-09T15:24:30.979Z,1.40
2023-04-09T15:26:59.947Z,1.48
2023-04-09T15:29:27.522Z,2.38
2023-04-09T15:31:55.175Z,2.05
2023-04-09T15:34:23.363Z,1.88
2023-04-09T15:36:50.928Z,1.77
2023-04-09T15:39:18.537Z,1.45
2023-04-09T15:41:46.468Z,2.00
2023-04-09T15:44:15.583Z,1.42
2023-04-09T15:46:43.180Z,0.60
2023-04-09T15:49:10.799Z,1.52
2023-04-09T15:51:38.428Z,1.75
2023-04-09T15:54:05.977Z,1.77
2023-04-09T15:56:35.940Z,1.10
2023-04-09T15:59:05.349Z,0.98
2023-04-09T16:01:34.646Z,0.88
2023-04-09T16:04:02.444Z,1.02
2023-04-09T16:06:30.162Z,2.05
2023-04-09T16:08:57.842Z,1.33
2023-04-09T16:11:25.986Z,1.48
2023-04-09T16:13:53.622Z,0.82
2023-04-09T16:16:21.797Z,1.45
2023-04-09T16:18:51.016Z,1.27
2023-04-09T16:21:18.846Z,2.22
2023-04-09T16:23:46.639Z,1.40
2023-04-09T16:26:14.235Z,1.92
2023-04-09T16:28:41.816Z,0.88
2023-04-09T16:31:09.415Z,1.30
2023-04-09T16:33:37.006Z,0.88
2023-04-09T16:36:06.426Z,1.30
2023-04-09T16:38:34.050Z,1.35
2023-04-09T16:41:01.645Z,1.65
2023-04-09T16:43:29.209Z,0.95
2023-04-09T16:45:57.140Z,1.33
2023-04-09T16:48:24.790Z,1.27
2023-04-09T16:50:52.370Z,1.27
2023-04-09T16:53:21.381Z,1.23
2023-04-09T16:55:49.110Z,0.70
2023-04-09T16:58:16.673Z,1.02
2023-04-09T17:00:45.464Z,1.08
2023-04-09T17:03:14.780Z,1.13
2023-04-09T17:05:42.452Z,1.00
2023-04-09T17:08:10.067Z,1.30
2023-04-09T17:10:38.987Z,0.85
2023-04-09T17:13:06.577Z,1.48
2023-04-09T17:15:34.135Z,1.80
2023-04-09T17:18:02.286Z,1.23
2023-04-09T17:20:30.366Z,1.10
2023-04-09T17:22:57.942Z,1.05
2023-04-09T17:25:25.760Z,1.17
2023-04-09T17:27:54.810Z,1.50
2023-04-09T17:30:22.510Z,0.65
2023-04-09T17:32:51.074Z,1.10
2023-04-09T17:35:18.920Z,1.00
2023-04-09T17:37:46.609Z,1.48
2023-04-09T17:40:15.093Z,0.65
2023-04-09T17:42:42.635Z,0.77
2023-04-09T17:45:12.213Z,1.10
2023-04-09T17:47:40.732Z,0.65
2023-04-09T17:50:08.952Z,1.02
2023-04-09T17:52:37.573Z,0.88
2023-04-09T17:55:08.765Z,1.00
2023-04-09T17:57:36.741Z,0.77
2023-04-09T18:00:05.187Z,1.02
2023-04-09T18:02:34.690Z,1.13
2023-04-09T18:05:02.707Z,1.15
2023-04-09T18:07:33.198Z,1.10
2023-04-09T18:10:01.024Z,0.73
2023-04-09T18:12:28.635Z,1.10
2023-04-09T18:14:56.318Z,1.00
2023-04-09T18:17:26.126Z,0.75
2023-04-09T18:19:58.133Z,0.55
2023-04-09T18:22:26.129Z,1.05
2023-04-09T18:24:54.136Z,1.23
2023-04-09T18:27:22.200Z,1.35
2023-04-09T18:29:50.460Z,0.65
2023-04-09T18:32:19.492Z,1.25
2023-04-09T18:34:47.617Z,0.65
2023-04-09T18:37:17.206Z,1.00
2023-04-09T18:39:44.818Z,0.73
2023-04-09T18:42:12.373Z,0.82
2023-04-09T18:44:40.034Z,0.98
2023-04-09T18:47:09.152Z,0.47
2023-04-09T18:49:36.806Z,0.50
2023-04-09T18:52:05.458Z,0.60
2023-04-09T18:54:34.907Z,0.63
2023-04-09T18:57:04.063Z,0.98
2023-04-09T18:59:31.705Z,1.23
2023-04-09T19:01:59.596Z,0.70
2023-04-09T19:04:28.142Z,0.57
2023-04-09T19:06:55.852Z,1.05
2023-04-09T19:09:23.445Z,0.95
2023-04-09T19:11:52.440Z,0.68
2023-04-09T19:14:20.032Z,1.08
2023-04-09T19:16:47.635Z,1.30
2023-04-09T19:19:15.207Z,0.95
2023-04-09T19:21:42.783Z,0.40
2023-04-09T19:24:10.349Z,1.05
2023-04-09T19:26:38.806Z,0.68
2023-04-09T19:29:07.773Z,1.42
2023-04-09T19:31:35.370Z,0.60
2023-04-09T19:34:03.006Z,1.08
2023-04-09T19:36:31.943Z,0.68
2023-04-09T19:38:59.527Z,1.17
2023-04-09T19:41:27.161Z,0.88
2023-04-09T19:43:54.775Z,1.02
2023-04-09T19:46:23.754Z,0.82
2023-04-09T19:48:51.507Z,1.45
2023-04-09T19:51:20.025Z,0.95
2023-04-09T19:53:47.913Z,0.85
2023-04-09T19:56:15.725Z,0.75
2023-04-09T19:58:44.793Z,0.73
2023-04-09T20:01:12.510Z,1.00
2023-04-09T20:03:41.528Z,0.80
2023-04-09T20:06:10.285Z,0.80
2023-04-09T20:08:38.339Z,0.85
2023-04-09T20:11:06.764Z,0.68
2023-04-09T20:13:34.358Z,0.70
2023-04-09T20:16:02.210Z,0.75
2023-04-09T20:18:29.855Z,1.20
2023-04-09T20:20:58.778Z,1.90
2023-04-09T20:23:26.324Z,1.00
2023-04-09T20:25:54.873Z,0.90
2023-04-09T20:28:22.995Z,1.20
2023-04-09T20:30:50.653Z,1.40
2023-04-09T20:33:18.531Z,1.00
2023-04-09T20:35:46.354Z,0.63
2023-04-09T20:38:15.519Z,0.63
2023-04-09T20:40:43.143Z,1.00
2023-04-09T20:43:10.815Z,0.93
2023-04-09T20:45:38.447Z,1.42
2023-04-09T20:48:06.220Z,0.77
2023-04-09T20:50:33.892Z,0.60
2023-04-09T20:53:01.478Z,0.98
2023-04-09T20:55:30.619Z,1.40
2023-04-09T20:57:58.365Z,0.70
2023-04-09T21:00:26.018Z,0.85
2023-04-09T21:02:54.007Z,1.00
2023-04-09T21:05:24.004Z,1.00
2023-04-09T21:07:52.020Z,0.80
2023-04-09T21:10:19.614Z,0.85
2023-04-09T21:12:48.549Z,1.10
2023-04-09T21:15:16.304Z,0.63
2023-04-09T21:17:43.915Z,0.88
2023-04-09T21:20:12.036Z,1.30
2023-04-09T21:22:39.609Z,0.98
2023-04-09T21:25:07.665Z,0.70
2023-04-09T21:27:35.332Z,1.70
2023-04-09T21:30:04.582Z,1.33
2023-04-09T21:32:32.622Z,0.90
2023-04-09T21:35:00.359Z,0.50
2023-04-09T21:37:28.880Z,1.27
2023-04-09T21:39:56.483Z,0.80
2023-04-09T21:42:24.058Z,0.60
2023-04-09T21:44:51.611Z,0.77
2023-04-09T21:47:20.837Z,0.93
2023-04-09T21:49:50.158Z,0.65
2023-04-09T21:52:17.735Z,0.60
2023-04-09T21:54:45.443Z,1.05
2023-04-09T21:57:13.049Z,0.50
2023-04-09T21:59:41.236Z,0.95
2023-04-09T22:02:09.724Z,0.82
2023-04-09T22:04:42.346Z,1.00
2023-04-09T22:07:10.345Z,0.88
2023-04-09T22:09:37.964Z,0.80
2023-04-09T22:12:05.755Z,0.47
2023-04-09T22:14:33.420Z,0.60
2023-04-09T22:17:01.816Z,1.08
2023-04-09T22:19:30.048Z,0.50
2023-04-09T22:21:59.290Z,1.02
2023-04-09T22:24:29.633Z,1.02
2023-04-09T22:26:58.825Z,0.82
2023-04-09T22:29:26.886Z,1.30
2023-04-09T22:31:54.472Z,0.90
2023-04-09T22:34:22.349Z,0.65
2023-04-09T22:36:49.978Z,0.98
2023-04-09T22:39:18.948Z,1.13
2023-04-09T22:41:46.541Z,1.20
2023-04-09T22:44:14.152Z,1.30
2023-04-09T22:46:42.115Z,0.82
2023-04-09T22:49:09.894Z,1.08
2023-04-09T22:51:38.957Z,1.08
2023-04-09T22:54:07.807Z,1.05
2023-04-09T22:56:37.693Z,1.35
2023-04-09T22:59:06.076Z,0.85
2023-04-09T23:01:33.802Z,1.02
2023-04-09T23:04:01.511Z,1.23
2023-04-09T23:06:30.890Z,0.88
2023-04-09T23:08:59.725Z,0.93
2023-04-09T23:11:27.647Z,1.00
2023-04-09T23:13:56.584Z,1.63
2023-04-09T23:16:24.196Z,1.20
2023-04-09T23:18:51.909Z,0.90
2023-04-09T23:21:19.636Z,1.27
2023-04-09T23:23:47.214Z,0.90
2023-04-09T23:26:14.812Z,1.30
2023-04-09T23:28:42.354Z,1.10
2023-04-09T23:31:11.426Z,1.17
2023-04-09T23:33:39.013Z,1.38
2023-04-09T23:36:07.060Z,1.05
2023-04-09T23:38:34.657Z,1.05
2023-04-09T23:41:02.230Z,1.10
2023-04-09T23:43:29.817Z,1.52
2023-04-09T23:45:57.396Z,1.23
2023-04-09T23:48:26.419Z,1.23
2023-04-09T23:50:53.962Z,0.98
2023-04-09T23:53:21.530Z,1.27
2023-04-09T23:55:50.101Z,1.58
2023-04-09T23:58:17.707Z,1.02
